sensor_id;sensor_type;location;lat;lon;timestamp;P1;durP1;ratioP1;P2;durP2;ratioP2
44440;SDS011;30146;52.268;20.944;2023-07-13T00:01:51;12.50;;;9.20;;
44440;SDS011;30146;52.268;20.944;2023-07-13T00:04:22;13.50;;;8.30;;
44440;SDS011;30146;52.268;20.944;2023-07-13T00:06:54;13.90;;;9.00;;
44440;SDS011;30146;52.268;20.944;2023-07-13T00:09:25;10.20;;;8.90;;
44440;SDS011;30146;52.268;20.944;2023-07-13T00:11:57;9.50;;;7.70;;
44440;SDS011;30146;52.268;20.944;2023-07-13T00:14:28;13.10;;;9.10;;
44440;SDS011;30146;52.268;20.944;2023-07-13T00:17:00;15.90;;;7.80;;
44440;SDS011;30146;52.268;20.944;2023-07-13T00:19:31;11.90;;;8.80;;
44440;SDS011;30146;52.268;20.944;2023-07-13T00:22:04;11.00;;;9.10;;
44440;SDS011;30146;52.268;20.944;2023-07-13T00:24:35;12.20;;;9.10;;
44440;SDS011;30146;52.268;20.944;2023-07-13T00:27:09;11.90;;;9.00;;
44440;SDS011;30146;52.268;20.944;2023-07-13T00:29:41;14.70;;;9.20;;
44440;SDS011;30146;52.268;20.944;2023-07-13T00:32:12;11.30;;;9.00;;
44440;SDS011;30146;52.268;20.944;2023-07-13T00:34:44;14.50;;;10.10;;
44440;SDS011;30146;52.268;20.944;2023-07-13T00:37:15;13.00;;;9.50;;
44440;SDS011;30146;52.268;20.944;2023-07-13T00:39:46;18.50;;;10.80;;
44440;SDS011;30146;52.268;20.944;2023-07-13T00:42:17;15.20;;;9.90;;
44440;SDS011;30146;52.268;20.944;2023-07-13T00:47:57;14.10;;;9.80;;
44440;SDS011;30146;52.268;20.944;2023-07-13T00:50:29;11.10;;;9.30;;
44440;SDS011;30146;52.268;20.944;2023-07-13T00:53:00;14.90;;;9.80;;
44440;SDS011;30146;52.268;20.944;2023-07-13T00:55:31;14.20;;;9.80;;
44440;SDS011;30146;52.268;20.944;2023-07-13T00:58:02;14.80;;;9.70;;
44440;SDS011;30146;52.268;20.944;2023-07-13T01:00:35;13.20;;;10.00;;
44440;SDS011;30146;52.268;20.944;2023-07-13T01:03:07;14.60;;;10.00;;
44440;SDS011;30146;52.268;20.944;2023-07-13T01:05:38;14.50;;;10.30;;
44440;SDS011;30146;52.268;20.944;2023-07-13T01:08:10;16.80;;;10.80;;
44440;SDS011;30146;52.268;20.944;2023-07-13T01:10:41;18.50;;;9.80;;
44440;SDS011;30146;52.268;20.944;2023-07-13T01:13:19;13.40;;;10.70;;
44440;SDS011;30146;52.268;20.944;2023-07-13T01:15:51;16.30;;;10.50;;
44440;SDS011;30146;52.268;20.944;2023-07-13T01:18:26;14.60;;;10.70;;
44440;SDS011;30146;52.268;20.944;2023-07-13T01:20:59;12.80;;;10.20;;
44440;SDS011;30146;52.268;20.944;2023-07-13T01:23:32;18.60;;;10.60;;
44440;SDS011;30146;52.268;20.944;2023-07-13T01:26:03;17.00;;;10.40;;
44440;SDS011;30146;52.268;20.944;2023-07-13T01:28:37;14.50;;;10.30;;
44440;SDS011;30146;52.268;20.944;2023-07-13T01:31:08;16.90;;;10.10;;
44440;SDS011;30146;52.268;20.944;2023-07-13T01:33:40;15.60;;;11.60;;
44440;SDS011;30146;52.268;20.944;2023-07-13T01:36:11;15.00;;;11.00;;
44440;SDS011;30146;52.268;20.944;2023-07-13T01:38:42;17.50;;;11.40;;
44440;SDS011;30146;52.268;20.944;2023-07-13T01:41:13;18.00;;;10.90;;
44440;SDS011;30146;52.268;20.944;2023-07-13T01:43:46;16.40;;;9.50;;
44440;SDS011;30146;52.268;20.944;2023-07-13T01:46:18;15.20;;;11.50;;
44440;SDS011;30146;52.268;20.944;2023-07-13T01:48:51;17.20;;;10.50;;
44440;SDS011;30146;52.268;20.944;2023-07-13T01:51:23;15.50;;;11.10;;
44440;SDS011;30146;52.268;20.944;2023-07-13T01:53:54;17.60;;;10.50;;
44440;SDS011;30146;52.268;20.944;2023-07-13T01:56:25;15.20;;;11.30;;
44440;SDS011;30146;52.268;20.944;2023-07-13T01:58:56;15.50;;;9.80;;
44440;SDS011;30146;52.268;20.944;2023-07-13T02:01:27;14.70;;;10.80;;
44440;SDS011;30146;52.268;20.944;2023-07-13T02:03:59;17.20;;;11.30;;
44440;SDS011;30146;52.268;20.944;2023-07-13T02:06:31;12.60;;;10.20;;
44440;SDS011;30146;52.268;20.944;2023-07-13T02:09:02;14.40;;;10.50;;
44440;SDS011;30146;52.268;20.944;2023-07-13T02:11:33;14.90;;;10.70;;
44440;SDS011;30146;52.268;20.944;2023-07-13T02:14:04;14.30;;;11.00;;
44440;SDS011;30146;52.268;20.944;2023-07-13T02:16:35;15.20;;;10.90;;
44440;SDS011;30146;52.268;20.944;2023-07-13T02:19:06;16.70;;;10.70;;
44440;SDS011;30146;52.268;20.944;2023-07-13T02:21:38;15.70;;;10.70;;
44440;SDS011;30146;52.268;20.944;2023-07-13T02:24:09;17.80;;;12.00;;
44440;SDS011;30146;52.268;20.944;2023-07-13T02:26:45;14.70;;;10.80;;
44440;SDS011;30146;52.268;20.944;2023-07-13T02:29:16;15.80;;;10.80;;
44440;SDS011;30146;52.268;20.944;2023-07-13T02:31:47;15.60;;;11.10;;
44440;SDS011;30146;52.268;20.944;2023-07-13T02:34:18;19.00;;;11.40;;
44440;SDS011;30146;52.268;20.944;2023-07-13T02:36:50;12.90;;;10.80;;
44440;SDS011;30146;52.268;20.944;2023-07-13T02:39:21;15.00;;;11.50;;
44440;SDS011;30146;52.268;20.944;2023-07-13T02:41:52;13.70;;;11.50;;
44440;SDS011;30146;52.268;20.944;2023-07-13T02:44:23;13.20;;;10.90;;
44440;SDS011;30146;52.268;20.944;2023-07-13T02:46:54;23.60;;;11.50;;
44440;SDS011;30146;52.268;20.944;2023-07-13T02:49:25;13.30;;;10.60;;
44440;SDS011;30146;52.268;20.944;2023-07-13T02:51:57;13.10;;;10.60;;
44440;SDS011;30146;52.268;20.944;2023-07-13T02:54:28;12.40;;;10.50;;
44440;SDS011;30146;52.268;20.944;2023-07-13T02:56:59;20.70;;;11.30;;
44440;SDS011;30146;52.268;20.944;2023-07-13T02:59:30;15.70;;;10.90;;
44440;SDS011;30146;52.268;20.944;2023-07-13T03:02:01;17.60;;;10.90;;
44440;SDS011;30146;52.268;20.944;2023-07-13T03:04:34;13.20;;;10.50;;
44440;SDS011;30146;52.268;20.944;2023-07-13T03:07:06;14.40;;;11.00;;
44440;SDS011;30146;52.268;20.944;2023-07-13T03:09:37;15.20;;;11.10;;
44440;SDS011;30146;52.268;20.944;2023-07-13T03:12:09;14.90;;;11.40;;
44440;SDS011;30146;52.268;20.944;2023-07-13T03:14:40;17.70;;;11.50;;
44440;SDS011;30146;52.268;20.944;2023-07-13T03:17:11;18.90;;;11.50;;
44440;SDS011;30146;52.268;20.944;2023-07-13T03:19:43;16.80;;;10.90;;
44440;SDS011;30146;52.268;20.944;2023-07-13T03:22:18;12.80;;;10.60;;
44440;SDS011;30146;52.268;20.944;2023-07-13T03:24:50;19.80;;;11.60;;
44440;SDS011;30146;52.268;20.944;2023-07-13T03:27:21;22.40;;;11.40;;
44440;SDS011;30146;52.268;20.944;2023-07-13T03:29:52;16.30;;;10.90;;
44440;SDS011;30146;52.268;20.944;2023-07-13T03:32:23;17.20;;;10.70;;
44440;SDS011;30146;52.268;20.944;2023-07-13T03:34:55;15.50;;;10.80;;
44440;SDS011;30146;52.268;20.944;2023-07-13T03:37:26;14.50;;;10.60;;
44440;SDS011;30146;52.268;20.944;2023-07-13T03:39:57;15.90;;;11.20;;
44440;SDS011;30146;52.268;20.944;2023-07-13T03:42:30;15.40;;;11.20;;
44440;SDS011;30146;52.268;20.944;2023-07-13T03:45:01;16.80;;;10.20;;
44440;SDS011;30146;52.268;20.944;2023-07-13T03:47:33;19.10;;;12.10;;
44440;SDS011;30146;52.268;20.944;2023-07-13T03:50:05;13.60;;;11.60;;
44440;SDS011;30146;52.268;20.944;2023-07-13T03:52:37;17.60;;;10.70;;
44440;SDS011;30146;52.268;20.944;2023-07-13T03:55:08;19.40;;;12.70;;
44440;SDS011;30146;52.268;20.944;2023-07-13T03:57:40;16.80;;;11.50;;
44440;SDS011;30146;52.268;20.944;2023-07-13T04:00:12;15.40;;;11.40;;
44440;SDS011;30146;52.268;20.944;2023-07-13T04:02:43;20.00;;;11.80;;
44440;SDS011;30146;52.268;20.944;2023-07-13T04:05:16;13.50;;;10.70;;
44440;SDS011;30146;52.268;20.944;2023-07-13T04:07:47;16.80;;;11.60;;
44440;SDS011;30146;52.268;20.944;2023-07-13T04:10:18;19.10;;;12.00;;
44440;SDS011;30146;52.268;20.944;2023-07-13T04:12:49;20.90;;;11.90;;
44440;SDS011;30146;52.268;20.944;2023-07-13T04:15:20;14.40;;;11.40;;
44440;SDS011;30146;52.268;20.944;2023-07-13T04:17:51;20.40;;;11.00;;
44440;SDS011;30146;52.268;20.944;2023-07-13T04:20:22;17.40;;;12.10;;
44440;SDS011;30146;52.268;20.944;2023-07-13T04:22:54;22.20;;;11.70;;
44440;SDS011;30146;52.268;20.944;2023-07-13T04:25:26;15.40;;;11.70;;
44440;SDS011;30146;52.268;20.944;2023-07-13T04:27:57;14.40;;;11.20;;
44440;SDS011;30146;52.268;20.944;2023-07-13T04:30:28;15.80;;;10.80;;
44440;SDS011;30146;52.268;20.944;2023-07-13T04:32:59;18.20;;;12.50;;
44440;SDS011;30146;52.268;20.944;2023-07-13T04:35:30;14.50;;;10.40;;
44440;SDS011;30146;52.268;20.944;2023-07-13T04:38:01;14.60;;;9.70;;
44440;SDS011;30146;52.268;20.944;2023-07-13T04:40:32;14.10;;;11.60;;
44440;SDS011;30146;52.268;20.944;2023-07-13T04:43:03;13.00;;;10.40;;
44440;SDS011;30146;52.268;20.944;2023-07-13T04:45:34;17.00;;;11.10;;
44440;SDS011;30146;52.268;20.944;2023-07-13T04:48:06;16.60;;;10.40;;
44440;SDS011;30146;52.268;20.944;2023-07-13T04:50:37;13.50;;;10.60;;
44440;SDS011;30146;52.268;20.944;2023-07-13T04:53:08;14.90;;;11.60;;
44440;SDS011;30146;52.268;20.944;2023-07-13T04:55:39;13.00;;;10.70;;
44440;SDS011;30146;52.268;20.944;2023-07-13T04:58:10;15.30;;;11.30;;
44440;SDS011;30146;52.268;20.944;2023-07-13T05:00:42;18.20;;;11.10;;
44440;SDS011;30146;52.268;20.944;2023-07-13T05:03:13;15.90;;;10.80;;
44440;SDS011;30146;52.268;20.944;2023-07-13T05:05:53;16.90;;;11.70;;
44440;SDS011;30146;52.268;20.944;2023-07-13T05:08:25;14.90;;;11.10;;
44440;SDS011;30146;52.268;20.944;2023-07-13T05:10:56;16.60;;;12.20;;
44440;SDS011;30146;52.268;20.944;2023-07-13T05:13:30;15.20;;;11.00;;
44440;SDS011;30146;52.268;20.944;2023-07-13T05:16:03;21.20;;;11.80;;
44440;SDS011;30146;52.268;20.944;2023-07-13T05:18:36;15.80;;;11.00;;
44440;SDS011;30146;52.268;20.944;2023-07-13T05:21:10;15.40;;;10.70;;
44440;SDS011;30146;52.268;20.944;2023-07-13T05:23:42;15.60;;;11.70;;
44440;SDS011;30146;52.268;20.944;2023-07-13T05:26:13;20.70;;;13.40;;
44440;SDS011;30146;52.268;20.944;2023-07-13T05:28:44;18.10;;;14.00;;
44440;SDS011;30146;52.268;20.944;2023-07-13T05:31:15;19.80;;;15.80;;
44440;SDS011;30146;52.268;20.944;2023-07-13T05:33:46;36.70;;;20.90;;
44440;SDS011;30146;52.268;20.944;2023-07-13T05:36:18;23.50;;;15.40;;
44440;SDS011;30146;52.268;20.944;2023-07-13T05:38:49;17.40;;;13.70;;
44440;SDS011;30146;52.268;20.944;2023-07-13T05:41:21;23.00;;;13.90;;
44440;SDS011;30146;52.268;20.944;2023-07-13T05:43:52;17.10;;;13.00;;
44440;SDS011;30146;52.268;20.944;2023-07-13T05:46:23;15.20;;;11.70;;
44440;SDS011;30146;52.268;20.944;2023-07-13T05:48:54;19.00;;;11.80;;
44440;SDS011;30146;52.268;20.944;2023-07-13T05:51:29;14.90;;;11.30;;
44440;SDS011;30146;52.268;20.944;2023-07-13T05:54:01;16.60;;;12.90;;
44440;SDS011;30146;52.268;20.944;2023-07-13T05:56:32;17.30;;;12.40;;
44440;SDS011;30146;52.268;20.944;2023-07-13T05:59:03;18.00;;;12.60;;
44440;SDS011;30146;52.268;20.944;2023-07-13T06:01:34;20.50;;;13.10;;
44440;SDS011;30146;52.268;20.944;2023-07-13T06:04:10;19.00;;;13.70;;
44440;SDS011;30146;52.268;20.944;2023-07-13T06:06:42;18.90;;;12.80;;
44440;SDS011;30146;52.268;20.944;2023-07-13T06:09:14;18.90;;;13.60;;
44440;SDS011;30146;52.268;20.944;2023-07-13T06:11:45;22.50;;;12.90;;
44440;SDS011;30146;52.268;20.944;2023-07-13T06:14:16;14.00;;;11.10;;
44440;SDS011;30146;52.268;20.944;2023-07-13T06:16:50;14.60;;;12.20;;
44440;SDS011;30146;52.268;20.944;2023-07-13T06:19:22;28.10;;;14.00;;
44440;SDS011;30146;52.268;20.944;2023-07-13T06:21:53;19.70;;;11.70;;
44440;SDS011;30146;52.268;20.944;2023-07-13T06:24:24;19.60;;;11.40;;
44440;SDS011;30146;52.268;20.944;2023-07-13T06:26:56;17.40;;;10.80;;
44440;SDS011;30146;52.268;20.944;2023-07-13T06:29:26;20.10;;;10.40;;
44440;SDS011;30146;52.268;20.944;2023-07-13T06:31:58;14.90;;;10.70;;
44440;SDS011;30146;52.268;20.944;2023-07-13T06:34:31;14.00;;;11.30;;
44440;SDS011;30146;52.268;20.944;2023-07-13T06:37:02;13.20;;;9.00;;
44440;SDS011;30146;52.268;20.944;2023-07-13T06:39:34;13.70;;;9.10;;
44440;SDS011;30146;52.268;20.944;2023-07-13T06:42:06;12.20;;;8.50;;
44440;SDS011;30146;52.268;20.944;2023-07-13T06:44:40;17.00;;;8.80;;
44440;SDS011;30146;52.268;20.944;2023-07-13T06:47:11;14.00;;;8.20;;
44440;SDS011;30146;52.268;20.944;2023-07-13T06:49:42;11.40;;;5.50;;
44440;SDS011;30146;52.268;20.944;2023-07-13T06:52:13;8.90;;;5.30;;
44440;SDS011;30146;52.268;20.944;2023-07-13T06:54:44;9.70;;;4.00;;
44440;SDS011;30146;52.268;20.944;2023-07-13T06:57:15;5.60;;;4.10;;
44440;SDS011;30146;52.268;20.944;2023-07-13T06:59:46;12.50;;;4.80;;
44440;SDS011;30146;52.268;20.944;2023-07-13T07:02:17;16.50;;;5.10;;
44440;SDS011;30146;52.268;20.944;2023-07-13T07:04:48;8.50;;;5.10;;
44440;SDS011;30146;52.268;20.944;2023-07-13T07:07:19;10.40;;;4.80;;
44440;SDS011;30146;52.268;20.944;2023-07-13T07:09:52;9.40;;;5.10;;
44440;SDS011;30146;52.268;20.944;2023-07-13T07:12:23;7.60;;;4.40;;
44440;SDS011;30146;52.268;20.944;2023-07-13T07:14:54;6.20;;;4.50;;
44440;SDS011;30146;52.268;20.944;2023-07-13T07:17:26;7.20;;;4.30;;
44440;SDS011;30146;52.268;20.944;2023-07-13T07:19:57;9.60;;;5.10;;
44440;SDS011;30146;52.268;20.944;2023-07-13T07:22:28;10.80;;;4.90;;
44440;SDS011;30146;52.268;20.944;2023-07-13T07:24:59;8.70;;;5.10;;
44440;SDS011;30146;52.268;20.944;2023-07-13T07:27:30;13.10;;;5.20;;
44440;SDS011;30146;52.268;20.944;2023-07-13T07:30:05;6.60;;;4.40;;
44440;SDS011;30146;52.268;20.944;2023-07-13T07:32:40;13.50;;;5.40;;
44440;SDS011;30146;52.268;20.944;2023-07-13T07:35:14;10.50;;;5.50;;
44440;SDS011;30146;52.268;20.944;2023-07-13T07:37:45;7.80;;;5.80;;
44440;SDS011;30146;52.268;20.944;2023-07-13T07:40:18;5.40;;;3.70;;
44440;SDS011;30146;52.268;20.944;2023-07-13T07:42:52;8.20;;;4.20;;
44440;SDS011;30146;52.268;20.944;2023-07-13T07:45:23;5.00;;;3.20;;
44440;SDS011;30146;52.268;20.944;2023-07-13T07:47:55;11.30;;;9.00;;
44440;SDS011;30146;52.268;20.944;2023-07-13T07:50:27;9.90;;;4.00;;
44440;SDS011;30146;52.268;20.944;2023-07-13T07:52:58;7.90;;;4.40;;
44440;SDS011;30146;52.268;20.944;2023-07-13T07:55:30;12.80;;;4.60;;
44440;SDS011;30146;52.268;20.944;2023-07-13T07:58:07;7.10;;;4.20;;
44440;SDS011;30146;52.268;20.944;2023-07-13T08:01:04;8.20;;;4.00;;
44440;SDS011;30146;52.268;20.944;2023-07-13T08:03:38;4.70;;;3.90;;
44440;SDS011;30146;52.268;20.944;2023-07-13T08:06:12;7.10;;;4.00;;
44440;SDS011;30146;52.268;20.944;2023-07-13T08:09:03;8.90;;;3.60;;
44440;SDS011;30146;52.268;20.944;2023-07-13T08:11:36;4.90;;;3.50;;
44440;SDS011;30146;52.268;20.944;2023-07-13T08:14:12;5.00;;;3.80;;
44440;SDS011;30146;52.268;20.944;2023-07-13T08:16:48;7.30;;;3.50;;
44440;SDS011;30146;52.268;20.944;2023-07-13T08:19:20;6.10;;;3.90;;
44440;SDS011;30146;52.268;20.944;2023-07-13T08:21:52;5.40;;;4.00;;
44440;SDS011;30146;52.268;20.944;2023-07-13T08:24:24;62.20;;;10.30;;
44440;SDS011;30146;52.268;20.944;2023-07-13T08:26:57;69.50;;;13.20;;
44440;SDS011;30146;52.268;20.944;2023-07-13T08:29:28;12.40;;;5.10;;
44440;SDS011;30146;52.268;20.944;2023-07-13T08:31:59;7.60;;;4.30;;
44440;SDS011;30146;52.268;20.944;2023-07-13T08:34:31;9.30;;;4.30;;
44440;SDS011;30146;52.268;20.944;2023-07-13T08:37:03;6.60;;;3.90;;
44440;SDS011;30146;52.268;20.944;2023-07-13T08:39:37;12.90;;;4.70;;
44440;SDS011;30146;52.268;20.944;2023-07-13T08:42:11;13.00;;;4.50;;
44440;SDS011;30146;52.268;20.944;2023-07-13T08:44:53;6.10;;;4.50;;
44440;SDS011;30146;52.268;20.944;2023-07-13T08:47:35;7.50;;;4.40;;
44440;SDS011;30146;52.268;20.944;2023-07-13T08:50:12;8.20;;;4.70;;
44440;SDS011;30146;52.268;20.944;2023-07-13T08:52:46;7.20;;;3.90;;
44440;SDS011;30146;52.268;20.944;2023-07-13T08:55:18;5.70;;;4.20;;
44440;SDS011;30146;52.268;20.944;2023-07-13T08:57:54;5.90;;;4.40;;
44440;SDS011;30146;52.268;20.944;2023-07-13T09:00:33;16.50;;;4.90;;
44440;SDS011;30146;52.268;20.944;2023-07-13T09:03:09;9.90;;;4.70;;
44440;SDS011;30146;52.268;20.944;2023-07-13T09:05:50;11.10;;;5.00;;
44440;SDS011;30146;52.268;20.944;2023-07-13T09:08:31;11.80;;;7.20;;
44440;SDS011;30146;52.268;20.944;2023-07-13T09:11:12;8.70;;;5.10;;
44440;SDS011;30146;52.268;20.944;2023-07-13T09:13:54;9.90;;;5.10;;
44440;SDS011;30146;52.268;20.944;2023-07-13T09:16:35;7.80;;;4.70;;
44440;SDS011;30146;52.268;20.944;2023-07-13T09:19:20;7.40;;;5.00;;
44440;SDS011;30146;52.268;20.944;2023-07-13T09:21:55;6.40;;;5.00;;
44440;SDS011;30146;52.268;20.944;2023-07-13T09:24:31;9.00;;;5.80;;
44440;SDS011;30146;52.268;20.944;2023-07-13T09:27:11;8.70;;;5.10;;
44440;SDS011;30146;52.268;20.944;2023-07-13T09:29:47;7.80;;;4.60;;
44440;SDS011;30146;52.268;20.944;2023-07-13T09:32:23;6.60;;;4.60;;
44440;SDS011;30146;52.268;20.944;2023-07-13T09:34:55;10.40;;;4.80;;
44440;SDS011;30146;52.268;20.944;2023-07-13T09:37:30;6.20;;;3.80;;
44440;SDS011;30146;52.268;20.944;2023-07-13T09:40:02;3.90;;;3.50;;
44440;SDS011;30146;52.268;20.944;2023-07-13T09:42:40;6.40;;;3.70;;
44440;SDS011;30146;52.268;20.944;2023-07-13T09:45:11;10.60;;;3.80;;
44440;SDS011;30146;52.268;20.944;2023-07-13T09:48:02;3.90;;;3.40;;
44440;SDS011;30146;52.268;20.944;2023-07-13T09:50:36;12.50;;;3.50;;
44440;SDS011;30146;52.268;20.944;2023-07-13T09:53:12;6.20;;;3.30;;
44440;SDS011;30146;52.268;20.944;2023-07-13T09:55:46;5.80;;;3.60;;
44440;SDS011;30146;52.268;20.944;2023-07-13T09:58:21;7.00;;;3.70;;
44440;SDS011;30146;52.268;20.944;2023-07-13T10:00:56;8.50;;;3.60;;
44440;SDS011;30146;52.268;20.944;2023-07-13T10:03:29;10.50;;;3.40;;
44440;SDS011;30146;52.268;20.944;2023-07-13T10:06:10;4.80;;;3.10;;
44440;SDS011;30146;52.268;20.944;2023-07-13T10:08:45;5.90;;;3.30;;
44440;SDS011;30146;52.268;20.944;2023-07-13T10:11:20;6.30;;;3.40;;
44440;SDS011;30146;52.268;20.944;2023-07-13T10:13:54;10.50;;;3.30;;
44440;SDS011;30146;52.268;20.944;2023-07-13T10:16:29;5.20;;;4.00;;
44440;SDS011;30146;52.268;20.944;2023-07-13T10:21:35;13.40;;;4.00;;
44440;SDS011;30146;52.268;20.944;2023-07-13T10:24:14;15.20;;;4.60;;
44440;SDS011;30146;52.268;20.944;2023-07-13T10:29:21;13.10;;;4.00;;
44440;SDS011;30146;52.268;20.944;2023-07-13T10:31:55;13.10;;;4.00;;
44440;SDS011;30146;52.268;20.944;2023-07-13T10:34:27;9.50;;;4.50;;
44440;SDS011;30146;52.268;20.944;2023-07-13T10:36:59;16.20;;;5.00;;
44440;SDS011;30146;52.268;20.944;2023-07-13T10:39:31;10.90;;;4.40;;
44440;SDS011;30146;52.268;20.944;2023-07-13T10:42:05;6.20;;;4.20;;
44440;SDS011;30146;52.268;20.944;2023-07-13T10:44:43;9.00;;;5.20;;
44440;SDS011;30146;52.268;20.944;2023-07-13T10:47:15;9.80;;;4.30;;
44440;SDS011;30146;52.268;20.944;2023-07-13T10:49:48;7.40;;;5.00;;
44440;SDS011;30146;52.268;20.944;2023-07-13T10:52:42;9.10;;;4.80;;
44440;SDS011;30146;52.268;20.944;2023-07-13T10:55:32;9.60;;;4.70;;
44440;SDS011;30146;52.268;20.944;2023-07-13T10:58:13;10.40;;;4.70;;
44440;SDS011;30146;52.268;20.944;2023-07-13T11:00:51;19.00;;;5.40;;
44440;SDS011;30146;52.268;20.944;2023-07-13T11:03:27;13.00;;;6.30;;
44440;SDS011;30146;52.268;20.944;2023-07-13T11:06:08;13.80;;;5.90;;
44440;SDS011;30146;52.268;20.944;2023-07-13T11:08:52;10.70;;;4.90;;
44440;SDS011;30146;52.268;20.944;2023-07-13T11:11:36;7.70;;;4.60;;
44440;SDS011;30146;52.268;20.944;2023-07-13T11:17:00;12.10;;;4.40;;
44440;SDS011;30146;52.268;20.944;2023-07-13T11:20:18;13.00;;;4.60;;
44440;SDS011;30146;52.268;20.944;2023-07-13T11:23:19;8.10;;;4.70;;
44440;SDS011;30146;52.268;20.944;2023-07-13T11:25:58;7.80;;;4.70;;
44440;SDS011;30146;52.268;20.944;2023-07-13T11:28:31;9.30;;;5.10;;
44440;SDS011;30146;52.268;20.944;2023-07-13T11:31:11;8.40;;;4.30;;
44440;SDS011;30146;52.268;20.944;2023-07-13T11:36:43;11.00;;;6.80;;
44440;SDS011;30146;52.268;20.944;2023-07-13T11:39:18;13.90;;;5.10;;
44440;SDS011;30146;52.268;20.944;2023-07-13T11:41:54;5.70;;;4.20;;
44440;SDS011;30146;52.268;20.944;2023-07-13T11:44:29;7.80;;;4.10;;
44440;SDS011;30146;52.268;20.944;2023-07-13T11:47:10;7.90;;;4.30;;
44440;SDS011;30146;52.268;20.944;2023-07-13T11:49:48;6.60;;;4.20;;
44440;SDS011;30146;52.268;20.944;2023-07-13T11:52:22;9.90;;;4.60;;
44440;SDS011;30146;52.268;20.944;2023-07-13T11:55:00;6.20;;;3.90;;
44440;SDS011;30146;52.268;20.944;2023-07-13T11:57:43;7.00;;;4.00;;
44440;SDS011;30146;52.268;20.944;2023-07-13T12:00:21;8.00;;;4.30;;
44440;SDS011;30146;52.268;20.944;2023-07-13T12:02:55;5.20;;;4.20;;
44440;SDS011;30146;52.268;20.944;2023-07-13T12:05:29;8.00;;;4.70;;
44440;SDS011;30146;52.268;20.944;2023-07-13T12:08:03;11.90;;;4.70;;
44440;SDS011;30146;52.268;20.944;2023-07-13T12:10:57;5.70;;;3.80;;
44440;SDS011;30146;52.268;20.944;2023-07-13T12:13:37;7.70;;;4.40;;
44440;SDS011;30146;52.268;20.944;2023-07-13T12:16:12;6.70;;;4.30;;
44440;SDS011;30146;52.268;20.944;2023-07-13T12:18:46;6.90;;;4.50;;
44440;SDS011;30146;52.268;20.944;2023-07-13T12:21:18;12.20;;;9.30;;
44440;SDS011;30146;52.268;20.944;2023-07-13T12:23:52;9.00;;;5.10;;
44440;SDS011;30146;52.268;20.944;2023-07-13T12:26:23;8.80;;;4.70;;
44440;SDS011;30146;52.268;20.944;2023-07-13T12:28:55;10.00;;;4.90;;
44440;SDS011;30146;52.268;20.944;2023-07-13T12:31:33;7.40;;;4.80;;
44440;SDS011;30146;52.268;20.944;2023-07-13T12:34:08;9.50;;;5.00;;
44440;SDS011;30146;52.268;20.944;2023-07-13T12:39:17;5.80;;;3.80;;
44440;SDS011;30146;52.268;20.944;2023-07-13T12:41:52;5.30;;;4.00;;
44440;SDS011;30146;52.268;20.944;2023-07-13T12:44:39;7.50;;;4.80;;
44440;SDS011;30146;52.268;20.944;2023-07-13T12:47:11;7.60;;;4.80;;
44440;SDS011;30146;52.268;20.944;2023-07-13T12:49:48;11.40;;;5.30;;
44440;SDS011;30146;52.268;20.944;2023-07-13T12:52:22;8.90;;;4.90;;
44440;SDS011;30146;52.268;20.944;2023-07-13T12:54:59;12.70;;;5.40;;
44440;SDS011;30146;52.268;20.944;2023-07-13T12:57:41;8.20;;;4.80;;
44440;SDS011;30146;52.268;20.944;2023-07-13T13:00:26;13.90;;;5.40;;
44440;SDS011;30146;52.268;20.944;2023-07-13T13:03:03;14.80;;;5.00;;
44440;SDS011;30146;52.268;20.944;2023-07-13T13:05:42;8.60;;;4.70;;
44440;SDS011;30146;52.268;20.944;2023-07-13T13:08:14;8.80;;;5.40;;
44440;SDS011;30146;52.268;20.944;2023-07-13T13:10:45;11.40;;;5.80;;
44440;SDS011;30146;52.268;20.944;2023-07-13T13:13:16;7.30;;;5.40;;
44440;SDS011;30146;52.268;20.944;2023-07-13T13:15:47;10.20;;;5.30;;
44440;SDS011;30146;52.268;20.944;2023-07-13T13:18:18;13.50;;;5.30;;
44440;SDS011;30146;52.268;20.944;2023-07-13T13:20:51;13.70;;;4.80;;
44440;SDS011;30146;52.268;20.944;2023-07-13T13:23:22;11.40;;;5.00;;
44440;SDS011;30146;52.268;20.944;2023-07-13T13:25:53;8.50;;;5.60;;
44440;SDS011;30146;52.268;20.944;2023-07-13T13:28:24;6.80;;;4.90;;
44440;SDS011;30146;52.268;20.944;2023-07-13T13:30:55;10.90;;;5.00;;
44440;SDS011;30146;52.268;20.944;2023-07-13T13:33:29;10.30;;;4.40;;
44440;SDS011;30146;52.268;20.944;2023-07-13T13:36:00;16.20;;;5.40;;
44440;SDS011;30146;52.268;20.944;2023-07-13T13:38:31;10.50;;;5.30;;
44440;SDS011;30146;52.268;20.944;2023-07-13T13:41:04;11.10;;;5.70;;
44440;SDS011;30146;52.268;20.944;2023-07-13T13:43:38;10.30;;;5.30;;
44440;SDS011;30146;52.268;20.944;2023-07-13T13:46:13;10.90;;;5.50;;
44440;SDS011;30146;52.268;20.944;2023-07-13T13:48:46;10.40;;;5.30;;
44440;SDS011;30146;52.268;20.944;2023-07-13T13:51:18;7.80;;;5.20;;
44440;SDS011;30146;52.268;20.944;2023-07-13T13:53:51;8.50;;;5.00;;
44440;SDS011;30146;52.268;20.944;2023-07-13T13:56:22;7.20;;;4.90;;
44440;SDS011;30146;52.268;20.944;2023-07-13T13:58:54;7.70;;;5.00;;
44440;SDS011;30146;52.268;20.944;2023-07-13T14:01:25;14.60;;;5.00;;
44440;SDS011;30146;52.268;20.944;2023-07-13T14:03:56;12.20;;;4.70;;
44440;SDS011;30146;52.268;20.944;2023-07-13T14:06:27;8.30;;;4.90;;
44440;SDS011;30146;52.268;20.944;2023-07-13T14:08:58;13.40;;;4.90;;
44440;SDS011;30146;52.268;20.944;2023-07-13T14:11:30;5.50;;;4.60;;
44440;SDS011;30146;52.268;20.944;2023-07-13T14:14:01;9.50;;;5.30;;
44440;SDS011;30146;52.268;20.944;2023-07-13T14:16:32;9.00;;;5.60;;
44440;SDS011;30146;52.268;20.944;2023-07-13T14:19:04;7.90;;;5.60;;
44440;SDS011;30146;52.268;20.944;2023-07-13T14:21:35;6.80;;;5.90;;
44440;SDS011;30146;52.268;20.944;2023-07-13T14:24:06;8.30;;;6.30;;
44440;SDS011;30146;52.268;20.944;2023-07-13T14:26:37;9.20;;;6.00;;
44440;SDS011;30146;52.268;20.944;2023-07-13T14:29:12;8.90;;;6.30;;
44440;SDS011;30146;52.268;20.944;2023-07-13T14:31:47;14.10;;;6.60;;
44440;SDS011;30146;52.268;20.944;2023-07-13T14:34:18;12.40;;;6.50;;
44440;SDS011;30146;52.268;20.944;2023-07-13T14:36:51;11.40;;;6.80;;
44440;SDS011;30146;52.268;20.944;2023-07-13T14:39:23;10.00;;;6.90;;
44440;SDS011;30146;52.268;20.944;2023-07-13T14:41:55;10.70;;;7.70;;
44440;SDS011;30146;52.268;20.944;2023-07-13T14:44:27;11.80;;;8.20;;
44440;SDS011;30146;52.268;20.944;2023-07-13T14:47:00;12.70;;;7.00;;
44440;SDS011;30146;52.268;20.944;2023-07-13T14:49:34;13.60;;;7.50;;
44440;SDS011;30146;52.268;20.944;2023-07-13T14:52:09;12.40;;;8.40;;
44440;SDS011;30146;52.268;20.944;2023-07-13T14:54:43;10.10;;;8.00;;
44440;SDS011;30146;52.268;20.944;2023-07-13T14:57:15;12.10;;;8.40;;
44440;SDS011;30146;52.268;20.944;2023-07-13T14:59:47;14.90;;;9.20;;
44440;SDS011;30146;52.268;20.944;2023-07-13T15:02:21;16.40;;;8.50;;
44440;SDS011;30146;52.268;20.944;2023-07-13T15:04:56;12.30;;;8.30;;
44440;SDS011;30146;52.268;20.944;2023-07-13T15:07:27;24.40;;;9.20;;
44440;SDS011;30146;52.268;20.944;2023-07-13T15:09:58;15.80;;;9.70;;
44440;SDS011;30146;52.268;20.944;2023-07-13T15:12:30;14.50;;;9.00;;
44440;SDS011;30146;52.268;20.944;2023-07-13T15:15:01;15.80;;;9.90;;